My Meet Scores
Madeline McGarry, Phenom Gymnastics - MyMeetScores.com
Top100 | Top Teams | Upcoming Meets | Completed Meets | Latest | Add Scores | Help| Support | Bookmark and Share

Madeline McGarry, Phenom Gymnastics
Personal Bests
LevelVault BarsBeamFloorAA
39.6009.500 9.0509.37537.075
48.8009.650 9.4009.05036.600
59.3259.900 9.4509.32537.350
79.4759.800 9.7509.70038.100
88.7009.550 9.5759.40037.150
AllLevels8.5009.100 9.2258.65035.475
Scores on America's Top 100as of 11.11.2019
Year Level Vault Bars Beam Floor AA
2017 59.900
2018 79.800

Click here to view our
exclusive Top 100 Collection

Click here to view our
exclusive Top 100 Collection
Meet Scores
Date Meet Team Session Level Division Vault Bars Beam Floor AA
2019-03-29 Illinois Level 7 & 8 State Meet Phenom Gymnastics 2 8 Jr B 8.700 20 9.475 17 9.575 7 9.400 14 37.150 11
2019-03-01 NGCD Academy's 2019 Flip'r Invitational Phenom Gymnastics 4 8 Child 8.375 5 9.375 4 9.500 1 9.225 4T 36.475 4
2019-02-23 Kinetic Classic 2019 Phenom Gymnastics 1 8 Younger 8.225 11 9.500 3 9.375 1T 9.275 4T 36.375 6
2019-02-01 The Big Chill Phenom Gymnastics 2 8 12 yr olds 0.000 5T 9.400 2 9.475 1 9.275 3 36.150 2
2019-01-18 2019 Bravo Classic Phenom Gymnastics 5A 8 Child 8.175 14T 9.125 10T 9.000 8T 9.025 13T 35.325 10
2018-12-14 2018 Aspire Classic Phenom Gymnastics 4 8 Younger 8.650 10 9.550 1T 9.350 3T 9.150 7T 36.700 3
2018-12-07 2018 MEGA Magic Classic Phenom Gymnastics A4 8 Jr A 8.275 8 9.300 4 8.800 8 8.800 12T 35.175 7
2018-03-23 Illinois Level 7 & 8 State Competition Phenom Gymnastics 10 7 Ch B 9.325 13 9.300 17 9.750 2 9.700 5T 38.075 7
2018-03-02 2018 Flip'r Invitational Phenom Gymnastics 2 7 Child Age 8-10 8.925 9 9.800 1 9.725 1 9.350 3 37.800 1
2018-02-01 The Big Chill Phenom Gymnastics 5 7 10 11 yr 9.350 7 8.450 10 9.750 1 9.425 5 36.975 7
2018-01-19 2018 Bravo Classic Phenom Gymnastics 4A 7 Child 9.125 17 9.525 2 9.425 4T 9.375 6T 37.450 5
2018-01-12 St Jude Benefit Meet Phenom Gymnastics 8B 7 JrA 9.475 7 9.400 2T 9.725 1 9.500 1 38.100 1
2017-12-15 2017 Aspire Classic Phenom Gymnastics 2 7 Jr A 9.400 14T 8.500 17 9.700 1 9.425 5T 37.025 11
2017-12-08 MEGA Magic Classic 2017 Phenom Gymnastics 2B 7 Jr A 9.000 7T 9.575 1T 9.625 1 9.300 6 37.500 2
2017-11-16 Paul Hamm Thanksgiving Classic - Women Phenom Gymnastics 3 7 Younger 9.275 39T 9.675 1T 9.625 2 9.525 6 38.100 1
2017-03-30 2017 Illinois Level 3 & 5 State American Institute of Gymnastics All 5 Jr B 8.750 16 9.500 3 9.425 2 9.325 4T 37.000 4
2017-03-10 Lucky Invitational American Institute of Gymnastics A08 5 Jr A 8.625 13T 9.400 1T 9.350 2 9.275 4 36.650 6
2017-02-23 Derby Classic 2017 American Institute of Gymnastics 5A 5 Jr A 9.125 10 9.900 1 9.450 1 8.875 5 37.350 1
2017-02-10 IGI Chicago Style Gymnastics Meet American Institute of Gymnastics 523W 5 JrA 9.050 10 9.350 7 9.400 7 8.950 11 36.750 7
2017-01-27 2017 UGA Invitational American Institute of Gymnastics B3 5 Child 9.275 5T 8.750 11 9.450 1 9.075 5 36.550 3
2017-01-05 Leenda's Island Adventure American Institute of Gymnastics P05 5 10 and Und 9.325 1 8.850 6 9.375 1T 9.000 3T 36.550 3
2016-12-09 St. Nick Invite American Institute of Gymnastics 1 5 JrA 8.950 5 8.925 4 8.400 13 9.000 3T 35.275 4
2016-03-10 2016 Illinois Level 4 State Meet American Institute of Gymnastics All 4 Child-D 8.800 13 9.650 2 9.400 2 8.750 19 36.600 6
2016-02-19 Midwest Open Womens 2016 American Institute of Gymnastics 7A 4 6-8 8.150 6 9.100 5 9.275 4 9.050 6 35.575 5
2016-02-05 St. Valentines Classic American Institute of Gymnastics 3A AllLevels All Ages 8.500 46T 9.100 7T 9.225 7 8.650 17T 35.475 11
2016-01-08 St Jude Benefit Meet American Institute of Gymnastics 5A 4 Jr A 8.350 12T 9.250 5T 9.350 4 8.750 8T 35.700 7
2015-12-11 St. Nick Invite American Institute of Gymnastics 7B 4 Child 8.650 4 9.100 4 8.550 10T 8.700 6T 35.000 8
2015-03-12 2015 Illinois Level 3 State Championship American Institute of Gymnastics All 3 Child-E 9.600 1 9.500 3 8.600 21 9.375 7 37.075 4
2015-02-27 Elk Grove Gymnastics Invite American Institute of Gymnastics 1 3 6-8yrs 8.925 22 9.125 9 9.050 4 8.450 20T 35.550 11
2015-02-13 IGI Chicago Style Gymnastics Meet American Institute of Gymnastics 221 3 8 & younge 8.675 13 8.175 12 8.600 8 8.900 7T 34.350 11
Get your scores on
a t-shirt, pin, or hoodie

www.lazysuits.com